createdAt,value
2019-04-20T00:00:48.309Z,81.40
2019-04-20T00:03:13.776Z,81.70
2019-04-20T00:05:43.429Z,81.90
2019-04-20T00:08:19.221Z,82.10
2019-04-20T00:10:51.377Z,82.40
2019-04-20T00:13:25.166Z,82.90
2019-04-20T00:15:43.050Z,83.30
2019-04-20T00:18:12.220Z,83.70
2019-04-20T00:20:43.801Z,83.80
2019-04-20T00:23:29.300Z,84.10
2019-04-20T00:26:17.295Z,84.30
2019-04-20T00:29:02.687Z,84.50
2019-04-20T00:31:26.710Z,84.70
2019-04-20T00:33:53.716Z,85.10
2019-04-20T00:36:11.863Z,85.40
2019-04-20T00:38:47.803Z,85.90
2019-04-20T00:41:13.682Z,86.70
2019-04-20T00:43:42.124Z,86.60
2019-04-20T00:46:18.391Z,86.80
2019-04-20T00:48:50.832Z,87.20
2019-04-20T00:51:39.302Z,87.50
2019-04-20T00:53:44.913Z,87.80
2019-04-20T00:56:11.916Z,88.20
2019-04-20T00:58:54.743Z,88.60
2019-04-20T01:01:32.160Z,88.80
2019-04-20T01:04:02.252Z,89.10
2019-04-20T01:06:31.576Z,89.30
2019-04-20T01:09:03.678Z,89.70
2019-04-20T01:11:38.392Z,89.90
2019-04-20T01:14:07.106Z,90.00
2019-04-20T01:16:42.017Z,90.10
2019-04-20T01:19:02.254Z,90.20
2019-04-20T01:21:33.464Z,90.40
2019-04-20T01:24:04.553Z,90.50
2019-04-20T01:26:31.352Z,90.60
2019-04-20T01:29:13.531Z,90.70
2019-04-20T01:31:39.397Z,90.80
2019-04-20T01:34:08.244Z,90.90
2019-04-20T01:36:49.078Z,90.90
2019-04-20T01:39:13.804Z,91.10
2019-04-20T01:41:30.760Z,91.20
2019-04-20T01:44:00.410Z,91.20
2019-04-20T01:46:30.107Z,91.30
2019-04-20T01:49:05.677Z,91.40
2019-04-20T01:51:37.690Z,91.50
2019-04-20T01:54:16.299Z,91.50
2019-04-20T01:56:43.491Z,91.70
2019-04-20T01:59:19.743Z,91.70
2019-04-20T02:01:59.442Z,91.80
2019-04-20T02:04:34.610Z,91.90
2019-04-20T02:07:02.062Z,92.10
2019-04-20T02:09:32.142Z,92.20
2019-04-20T02:12:06.954Z,92.30
2019-04-20T02:14:38.798Z,92.40
2019-04-20T02:17:10.621Z,92.40
2019-04-20T02:19:43.206Z,92.40
2019-04-20T02:22:13.567Z,92.50
2019-04-20T02:24:30.048Z,92.70
2019-04-20T02:26:58.409Z,92.80
2019-04-20T02:30:06.456Z,92.90
2019-04-20T02:34:59.276Z,93.00
2019-04-20T02:43:09.429Z,93.30
2019-04-20T02:45:17.322Z,93.40
2019-04-20T02:50:06.951Z,93.60
2019-04-20T02:52:42.554Z,93.70
2019-04-20T02:55:12.896Z,93.80
2019-04-20T02:57:44.312Z,93.90
2019-04-20T03:00:05.660Z,94.00
2019-04-20T03:02:18.484Z,94.20
2019-04-20T03:04:42.463Z,94.30
2019-04-20T03:07:20.849Z,94.40
2019-04-20T03:09:55.432Z,94.50
2019-04-20T03:12:29.169Z,94.70
2019-04-20T03:14:50.157Z,94.80
2019-04-20T03:17:27.107Z,94.90
2019-04-20T03:19:47.640Z,95.00
2019-04-20T03:22:35.290Z,95.10
2019-04-20T03:25:15.209Z,95.20
2019-04-20T03:27:28.154Z,95.30
2019-04-20T03:30:04.149Z,95.60
2019-04-20T03:37:36.663Z,96.00
2019-04-20T03:39:56.821Z,96.20
2019-04-20T03:42:12.534Z,96.50
2019-04-20T03:44:50.123Z,96.70
2019-04-20T03:47:23.104Z,96.90
2019-04-20T03:50:07.845Z,97.10
2019-04-20T03:52:37.710Z,97.30
2019-04-20T03:55:26.229Z,97.40
2019-04-20T03:58:03.511Z,97.40
2019-04-20T04:00:42.486Z,97.60
2019-04-20T04:03:36.427Z,97.80
2019-04-20T04:06:07.700Z,98.00
2019-04-20T04:08:32.849Z,98.20
2019-04-20T04:11:12.361Z,98.40
2019-04-20T04:13:24.972Z,98.50
2019-04-20T04:15:59.067Z,98.80
2019-04-20T04:18:30.640Z,98.90
2019-04-20T04:21:03.103Z,99.10
2019-04-20T04:23:40.429Z,99.20
2019-04-20T04:26:08.523Z,99.30
2019-04-20T04:28:42.318Z,99.40
2019-04-20T04:31:11.940Z,99.50
2019-04-20T04:36:10.094Z,99.70
2019-04-20T04:38:47.466Z,99.80
2019-04-20T04:41:20.239Z,99.80
2019-04-20T04:43:48.058Z,99.90
2019-04-20T04:45:55.501Z,99.90
2019-04-20T04:48:29.897Z,99.90
2019-04-20T04:50:59.844Z,99.90
2019-04-20T04:53:36.975Z,99.90
2019-04-20T04:56:00.434Z,99.90
2019-04-20T04:58:25.551Z,99.90
2019-04-20T05:01:01.420Z,99.90
2019-04-20T05:03:38.782Z,99.90
2019-04-20T05:06:18.699Z,99.90
2019-04-20T05:08:37.738Z,99.90
2019-04-20T05:11:00.649Z,99.90
2019-04-20T05:13:37.110Z,99.90
2019-04-20T05:16:14.747Z,99.90
2019-04-20T05:18:51.447Z,99.90
2019-04-20T05:21:20.756Z,99.90
2019-04-20T05:23:44.633Z,99.90
2019-04-20T05:26:42.792Z,99.90
2019-04-20T05:29:01.376Z,99.90
2019-04-20T05:31:31.000Z,99.90
2019-04-20T05:34:14.370Z,99.90
2019-04-20T05:36:42.649Z,99.90
2019-04-20T05:39:24.821Z,99.90
2019-04-20T05:41:41.973Z,99.90
2019-04-20T05:44:11.528Z,99.90
2019-04-20T05:46:47.448Z,99.90
2019-04-20T05:49:20.653Z,99.90
2019-04-20T05:51:44.618Z,99.90
2019-04-20T05:54:32.635Z,99.90
2019-04-20T05:56:50.222Z,99.90
2019-04-20T05:59:11.535Z,99.90
2019-04-20T06:01:53.331Z,99.90
2019-04-20T06:04:17.295Z,99.90
2019-04-20T06:06:52.066Z,99.90
2019-04-20T06:09:20.245Z,99.90
2019-04-20T06:11:55.033Z,99.90
2019-04-20T06:14:08.038Z,99.80
2019-04-20T06:16:55.906Z,99.80
2019-04-20T06:22:12.709Z,99.80
2019-04-20T06:24:45.229Z,99.40
2019-04-20T06:27:06.491Z,99.00
2019-04-20T06:29:37.677Z,98.70
2019-04-20T06:32:10.887Z,98.40
2019-04-20T06:37:02.060Z,98.00
2019-04-20T06:42:10.865Z,97.40
2019-04-20T06:49:42.485Z,96.70
2019-04-20T06:52:15.515Z,96.40
2019-04-20T06:54:43.629Z,96.10
2019-04-20T06:57:10.184Z,96.00
2019-04-20T06:59:43.250Z,95.60
2019-04-20T07:02:24.568Z,95.10
2019-04-20T07:04:57.863Z,95.00
2019-04-20T07:07:14.337Z,94.80
2019-04-20T07:09:55.693Z,94.20
2019-04-20T07:12:13.040Z,94.10
2019-04-20T07:14:39.154Z,93.70
2019-04-20T07:19:58.869Z,93.40
2019-04-20T07:22:46.150Z,92.60
2019-04-20T07:25:03.492Z,92.30
2019-04-20T07:27:30.817Z,91.80
2019-04-20T07:30:06.313Z,91.30
2019-04-20T07:32:38.758Z,90.80
2019-04-20T07:35:01.546Z,90.40
2019-04-20T07:38:02.994Z,90.40
2019-04-20T07:40:07.370Z,90.20
2019-04-20T07:42:35.189Z,89.90
2019-04-20T07:45:10.032Z,89.20
2019-04-20T07:47:41.590Z,88.30
2019-04-20T07:50:01.142Z,87.40
2019-04-20T07:52:14.399Z,86.30
2019-04-20T07:55:26.053Z,85.70
2019-04-20T07:57:32.589Z,85.30
2019-04-20T07:59:59.037Z,86.00
2019-04-20T08:02:45.083Z,84.80
2019-04-20T08:05:08.293Z,84.20
2019-04-20T08:07:35.129Z,83.90
2019-04-20T08:10:00.373Z,83.30
2019-04-20T08:12:51.518Z,82.50
2019-04-20T08:15:32.219Z,81.90
2019-04-20T08:17:51.014Z,81.10
2019-04-20T08:20:15.848Z,80.40
2019-04-20T08:22:47.444Z,79.90
2019-04-20T08:25:12.540Z,79.00
2019-04-20T08:27:46.658Z,78.00
2019-04-20T08:30:46.416Z,77.20
2019-04-20T08:33:17.832Z,76.80
2019-04-20T08:36:02.817Z,76.60
2019-04-20T08:40:54.974Z,75.90
2019-04-20T08:43:38.002Z,76.00
2019-04-20T08:45:51.071Z,75.10
2019-04-20T08:48:31.394Z,73.80
2019-04-20T08:50:57.242Z,72.80
2019-04-20T08:53:27.873Z,72.40
2019-04-20T08:55:50.283Z,72.00
2019-04-20T08:58:05.343Z,72.00
2019-04-20T09:00:39.655Z,71.50
2019-04-20T09:03:15.315Z,71.60
2019-04-20T09:05:45.810Z,70.90
2019-04-20T09:08:14.029Z,69.90
2019-04-20T09:10:48.216Z,69.30
2019-04-20T09:13:15.996Z,68.90
2019-04-20T09:15:34.682Z,68.00
2019-04-20T09:18:21.010Z,67.10
2019-04-20T09:20:48.496Z,66.30
2019-04-20T09:23:30.023Z,66.50
2019-04-20T09:26:00.352Z,66.00
2019-04-20T09:28:23.940Z,65.40
2019-04-20T09:30:53.181Z,64.30
2019-04-20T09:33:51.410Z,61.20
2019-04-20T09:36:23.921Z,60.20
2019-04-20T09:39:10.383Z,60.00
2019-04-20T09:42:00.026Z,59.80
2019-04-20T09:44:15.591Z,58.60
2019-04-20T09:46:49.808Z,57.60
2019-04-20T09:49:23.889Z,57.10
2019-04-20T09:52:01.420Z,56.10
2019-04-20T09:54:32.636Z,54.10
2019-04-20T09:57:04.957Z,52.40
2019-04-20T09:59:33.522Z,51.40
2019-04-20T10:01:48.892Z,51.20
2019-04-20T10:04:15.301Z,51.00
2019-04-20T10:06:43.835Z,51.00
2019-04-20T10:09:13.368Z,50.30
2019-04-20T10:11:44.192Z,50.00
2019-04-20T10:14:12.409Z,50.20
2019-04-20T10:16:42.011Z,50.70
2019-04-20T10:19:11.986Z,49.50
2019-04-20T10:21:41.577Z,49.00
2019-04-20T10:24:10.647Z,48.50
2019-04-20T10:26:40.693Z,48.00
2019-04-20T10:29:09.937Z,47.60
2019-04-20T10:31:48.270Z,47.40
2019-04-20T10:34:09.499Z,47.80
2019-04-20T10:36:39.842Z,47.80
2019-04-20T10:39:09.158Z,47.70
2019-04-20T10:41:45.277Z,48.00
2019-04-20T10:44:09.047Z,48.00
2019-04-20T10:46:38.778Z,47.70
2019-04-20T10:49:08.327Z,47.50
2019-04-20T10:51:37.808Z,47.40
2019-04-20T10:54:06.703Z,47.40
2019-04-20T10:56:35.224Z,47.00
2019-04-20T10:59:03.644Z,46.80
2019-04-20T11:01:32.120Z,46.40
2019-04-20T11:04:00.770Z,46.10
2019-04-20T11:06:29.341Z,45.40
2019-04-20T11:08:58.543Z,45.00
2019-04-20T11:11:30.049Z,45.10
2019-04-20T11:14:00.769Z,44.40
2019-04-20T11:16:28.522Z,44.30
2019-04-20T11:18:57.765Z,44.00
2019-04-20T11:21:26.342Z,43.80
2019-04-20T11:23:56.151Z,43.90
2019-04-20T11:26:26.352Z,43.90
2019-04-20T11:28:55.896Z,43.30
2019-04-20T11:31:27.717Z,42.70
2019-04-20T11:33:54.578Z,42.70
2019-04-20T11:36:23.216Z,42.50
2019-04-20T11:38:51.697Z,41.90
2019-04-20T11:41:26.160Z,41.80
2019-04-20T11:43:51.620Z,41.10
2019-04-20T11:46:20.680Z,40.80
2019-04-20T11:48:49.635Z,40.90
2019-04-20T11:51:19.189Z,40.70
2019-04-20T11:53:48.153Z,40.50
2019-04-20T11:56:22.430Z,40.60
2019-04-20T11:58:47.084Z,40.10
2019-04-20T12:01:21.690Z,39.10
2019-04-20T12:03:58.451Z,38.30
2019-04-20T12:06:18.918Z,37.30
2019-04-20T12:08:47.406Z,36.80
2019-04-20T12:11:26.550Z,36.40
2019-04-20T12:13:46.829Z,36.00
2019-04-20T12:16:15.445Z,35.80
2019-04-20T12:18:44.369Z,35.60
2019-04-20T12:21:12.970Z,35.30
2019-04-20T12:23:42.300Z,34.80
2019-04-20T12:26:10.954Z,34.60
2019-04-20T12:28:40.071Z,34.30
2019-04-20T12:31:11.894Z,34.80
2019-04-20T12:33:40.048Z,35.00
2019-04-20T12:36:10.296Z,35.50
2019-04-20T12:38:39.184Z,35.70
2019-04-20T12:41:09.589Z,35.90
2019-04-20T12:43:38.071Z,35.50
2019-04-20T12:46:07.654Z,35.80
2019-04-20T12:48:37.623Z,36.20
2019-04-20T12:51:06.335Z,36.00
2019-04-20T12:53:35.006Z,35.90
2019-04-20T12:56:04.401Z,35.80
2019-04-20T12:58:32.911Z,35.70
2019-04-20T13:01:02.478Z,35.00
2019-04-20T13:03:31.753Z,35.20
2019-04-20T13:06:01.690Z,34.60
2019-04-20T13:08:34.631Z,34.40
2019-04-20T13:11:04.816Z,34.30
2019-04-20T13:13:38.693Z,34.70
2019-04-20T13:16:16.335Z,34.20
2019-04-20T13:18:47.636Z,33.90
2019-04-20T13:21:16.762Z,33.80
2019-04-20T13:23:46.709Z,33.70
2019-04-20T13:26:15.691Z,33.60
2019-04-20T13:28:46.774Z,33.50
2019-04-20T13:31:15.679Z,33.40
2019-04-20T13:33:45.330Z,33.40
2019-04-20T13:36:14.421Z,33.40
2019-04-20T13:38:44.090Z,32.60
2019-04-20T13:41:13.777Z,32.40
2019-04-20T13:43:42.314Z,32.40
2019-04-20T13:46:11.146Z,31.90
2019-04-20T13:48:39.834Z,32.00
2019-04-20T13:51:08.298Z,32.00
2019-04-20T13:53:37.143Z,31.40
2019-04-20T13:56:05.836Z,31.40
2019-04-20T13:58:40.116Z,31.20
2019-04-20T14:01:26.544Z,30.20
2019-04-20T14:04:03.001Z,29.00
2019-04-20T14:06:31.501Z,28.80
2019-04-20T14:09:01.187Z,29.30
2019-04-20T14:11:29.736Z,29.10
2019-04-20T14:14:01.260Z,29.20
2019-04-20T14:16:29.354Z,29.20
2019-04-20T14:18:58.790Z,28.90
2019-04-20T14:21:27.916Z,29.20
2019-04-20T14:23:57.143Z,28.80
2019-04-20T14:26:25.699Z,28.60
2019-04-20T14:28:54.752Z,28.30
2019-04-20T14:31:23.845Z,28.30
2019-04-20T14:33:52.847Z,27.80
2019-04-20T14:36:21.367Z,27.70
2019-04-20T14:38:49.967Z,27.70
2019-04-20T14:41:18.481Z,27.70
2019-04-20T14:43:47.009Z,28.00
2019-04-20T14:46:16.759Z,27.90
2019-04-20T14:48:45.318Z,27.80
2019-04-20T14:51:13.939Z,28.40
2019-04-20T14:53:43.262Z,27.80
2019-04-20T14:56:11.767Z,27.70
2019-04-20T14:58:49.206Z,27.50
2019-04-20T15:01:26.793Z,27.60
2019-04-20T15:03:59.951Z,27.70
2019-04-20T15:06:25.608Z,27.50
2019-04-20T15:08:54.733Z,27.40
2019-04-20T15:11:23.443Z,27.40
2019-04-20T15:13:53.063Z,27.50
2019-04-20T15:16:22.498Z,28.00
2019-04-20T15:18:53.528Z,28.40
2019-04-20T15:21:24.512Z,28.70
2019-04-20T15:23:53.292Z,28.70
2019-04-20T15:26:22.426Z,28.70
2019-04-20T15:28:52.393Z,28.90
2019-04-20T15:31:21.132Z,29.10
2019-04-20T15:33:50.743Z,28.90
2019-04-20T15:36:20.157Z,28.80
2019-04-20T15:38:49.395Z,28.90
2019-04-20T15:41:18.523Z,28.80
2019-04-20T15:43:47.202Z,28.80
2019-04-20T15:46:17.101Z,28.70
2019-04-20T15:48:46.147Z,28.20
2019-04-20T15:51:17.118Z,27.60
2019-04-20T15:53:44.858Z,27.90
2019-04-20T15:56:14.445Z,28.00
2019-04-20T15:58:44.253Z,27.80
2019-04-20T16:01:14.261Z,27.70
2019-04-20T16:03:59.384Z,28.70
2019-04-20T16:06:29.460Z,30.10
2019-04-20T16:09:00.067Z,31.30
2019-04-20T16:11:28.842Z,32.10
2019-04-20T16:13:58.201Z,32.20
2019-04-20T16:16:27.860Z,32.20
2019-04-20T16:18:56.948Z,32.50
2019-04-20T16:21:28.449Z,32.80
2019-04-20T16:24:10.483Z,32.70
2019-04-20T16:26:55.739Z,32.80
2019-04-20T16:29:25.774Z,33.10
2019-04-20T16:31:54.387Z,33.20
2019-04-20T16:34:23.350Z,33.70
2019-04-20T16:36:54.699Z,34.10
2019-04-20T16:39:22.630Z,34.60
2019-04-20T16:41:51.130Z,35.00
2019-04-20T16:44:20.950Z,35.00
2019-04-20T16:46:50.184Z,34.90
2019-04-20T16:49:19.287Z,34.70
2019-04-20T16:51:49.087Z,34.90
2019-04-20T16:54:17.776Z,35.50
2019-04-20T16:56:46.645Z,35.60
2019-04-20T16:59:17.290Z,35.80
2019-04-20T17:01:46.523Z,35.80
2019-04-20T17:04:19.148Z,35.90
2019-04-20T17:06:53.971Z,36.60
2019-04-20T17:09:24.054Z,36.70
2019-04-20T17:11:53.949Z,36.50
2019-04-20T17:14:23.748Z,36.50
2019-04-20T17:16:53.516Z,36.80
2019-04-20T17:19:21.985Z,37.20
2019-04-20T17:21:50.829Z,37.10
2019-04-20T17:24:19.608Z,37.30
2019-04-20T17:27:05.291Z,37.50
2019-04-20T17:29:36.115Z,37.80
2019-04-20T17:32:11.565Z,38.00
2019-04-20T17:34:54.436Z,38.20
2019-04-20T17:37:10.666Z,38.60
2019-04-20T17:40:02.876Z,38.60
2019-04-20T17:42:23.745Z,38.80
2019-04-20T17:44:50.289Z,38.90
2019-04-20T17:47:26.117Z,38.90
2019-04-20T17:50:02.062Z,39.10
2019-04-20T17:52:35.185Z,39.20
2019-04-20T17:54:47.341Z,39.10
2019-04-20T17:57:17.251Z,39.30
2019-04-20T17:59:53.226Z,39.40
2019-04-20T18:02:39.464Z,39.40
2019-04-20T18:05:23.012Z,39.60
2019-04-20T18:07:46.572Z,39.90
2019-04-20T18:10:17.610Z,40.10
2019-04-20T18:12:38.629Z,40.80
2019-04-20T18:15:18.270Z,40.50
2019-04-20T18:17:56.268Z,40.60
2019-04-20T18:20:10.765Z,40.80
2019-04-20T18:22:44.118Z,41.20
2019-04-20T18:25:30.028Z,41.70
2019-04-20T18:27:57.153Z,42.00
2019-04-20T18:30:26.198Z,41.90
2019-04-20T18:32:43.172Z,42.20
2019-04-20T18:35:13.998Z,42.30
2019-04-20T18:37:44.206Z,42.40
2019-04-20T18:40:14.890Z,42.60
2019-04-20T18:42:44.177Z,42.70
2019-04-20T18:45:29.661Z,43.00
2019-04-20T18:48:04.639Z,43.40
2019-04-20T18:50:22.144Z,43.40
2019-04-20T18:52:43.670Z,43.70
2019-04-20T18:55:18.884Z,43.80
2019-04-20T18:57:44.444Z,43.90
2019-04-20T19:00:20.029Z,44.00
2019-04-20T19:02:48.888Z,44.10
2019-04-20T19:05:15.818Z,44.20
2019-04-20T19:07:55.097Z,44.30
2019-04-20T19:10:23.025Z,44.80
2019-04-20T19:12:52.519Z,45.10
2019-04-20T19:15:52.218Z,45.30
2019-04-20T19:18:27.127Z,45.70
2019-04-20T19:20:47.194Z,46.00
2019-04-20T19:23:16.895Z,46.40
2019-04-20T19:25:45.824Z,46.90
2019-04-20T19:28:19.473Z,47.40
2019-04-20T19:30:56.105Z,47.90
2019-04-20T19:33:31.781Z,48.30
2019-04-20T19:35:53.091Z,48.70
2019-04-20T19:38:21.886Z,49.20
2019-04-20T19:40:54.564Z,49.60
2019-04-20T19:43:23.360Z,50.00
2019-04-20T19:46:33.697Z,50.40
2019-04-20T19:48:28.071Z,50.90
2019-04-20T19:51:11.614Z,51.20
2019-04-20T19:53:40.495Z,51.60
2019-04-20T19:56:00.257Z,52.00
2019-04-20T19:58:30.328Z,52.40
2019-04-20T20:00:53.714Z,52.70
2019-04-20T20:03:21.936Z,53.20
2019-04-20T20:05:53.794Z,53.50
2019-04-20T20:08:24.485Z,53.90
2019-04-20T20:10:50.738Z,54.30
2019-04-20T20:13:20.398Z,54.60
2019-04-20T20:15:52.632Z,54.90
2019-04-20T20:18:33.042Z,55.10
2019-04-20T20:21:04.773Z,55.40
2019-04-20T20:23:20.307Z,55.90
2019-04-20T20:25:51.104Z,56.40
2019-04-20T20:28:30.804Z,56.70
2019-04-20T20:31:03.448Z,57.20
2019-04-20T20:33:36.302Z,57.60
2019-04-20T20:35:58.264Z,57.90
2019-04-20T20:38:28.002Z,58.40
2019-04-20T20:40:58.866Z,58.90
2019-04-20T20:43:37.395Z,59.30
2019-04-20T20:46:03.141Z,59.70
2019-04-20T20:48:35.668Z,60.40
2019-04-20T20:51:12.189Z,61.00
2019-04-20T20:53:35.333Z,61.50
2019-04-20T20:56:01.842Z,62.10
2019-04-20T20:58:40.171Z,62.40
2019-04-20T21:00:57.566Z,62.90
2019-04-20T21:03:29.208Z,63.40
2019-04-20T21:05:51.588Z,63.60
2019-04-20T21:08:20.137Z,63.80
2019-04-20T21:10:49.711Z,63.80
2019-04-20T21:13:19.221Z,64.00
2019-04-20T21:15:57.607Z,63.70
2019-04-20T21:18:37.900Z,63.50
2019-04-20T21:21:06.265Z,63.10
2019-04-20T21:23:34.098Z,63.00
2019-04-20T21:26:11.508Z,63.10
2019-04-20T21:28:40.038Z,62.60
2019-04-20T21:31:14.666Z,62.40
2019-04-20T21:33:40.611Z,61.70
2019-04-20T21:36:09.242Z,61.20
2019-04-20T21:38:41.291Z,60.50
2019-04-20T21:41:12.355Z,60.00
2019-04-20T21:43:41.175Z,59.80
2019-04-20T21:46:10.263Z,59.60
2019-04-20T21:48:54.275Z,59.40
2019-04-20T21:51:18.944Z,59.20
2019-04-20T21:53:39.459Z,59.20
2019-04-20T21:56:08.420Z,59.20
2019-04-20T21:58:46.557Z,59.50
2019-04-20T22:01:17.602Z,59.90
2019-04-20T22:03:38.291Z,60.40
2019-04-20T22:06:07.436Z,60.80
2019-04-20T22:08:40.448Z,61.30
2019-04-20T22:11:08.140Z,61.70
2019-04-20T22:13:40.202Z,61.90
2019-04-20T22:16:10.576Z,62.10
2019-04-20T22:18:48.571Z,62.10
2019-04-20T22:21:19.690Z,62.20
2019-04-20T22:23:57.241Z,62.40
2019-04-20T22:26:18.778Z,62.30
2019-04-20T22:28:38.270Z,62.30
2019-04-20T22:31:08.202Z,62.20
2019-04-20T22:33:41.226Z,62.00
2019-04-20T22:36:10.840Z,62.00
2019-04-20T22:38:59.821Z,62.00
2019-04-20T22:41:27.892Z,62.00
2019-04-20T22:43:56.713Z,62.00
2019-04-20T22:46:31.741Z,62.20
2019-04-20T22:49:17.853Z,62.30
2019-04-20T22:51:40.236Z,62.40
2019-04-20T22:54:12.950Z,62.60
2019-04-20T22:56:42.368Z,62.60
2019-04-20T22:59:05.430Z,62.90
2019-04-20T23:01:35.055Z,63.30
2019-04-20T23:03:56.881Z,63.30
2019-04-20T23:06:33.472Z,63.30
2019-04-20T23:08:59.509Z,63.50
2019-04-20T23:11:30.022Z,63.60
2019-04-20T23:13:56.157Z,63.60
2019-04-20T23:16:27.922Z,63.80
2019-04-20T23:18:56.050Z,64.20
2019-04-20T23:21:25.758Z,64.60
2019-04-20T23:24:00.396Z,64.60
2019-04-20T23:26:31.293Z,64.70
2019-04-20T23:28:57.547Z,64.70
2019-04-20T23:31:26.781Z,64.80
2019-04-20T23:33:56.137Z,64.90
2019-04-20T23:36:33.068Z,65.20
2019-04-20T23:38:59.233Z,66.00
2019-04-20T23:41:26.022Z,65.50
2019-04-20T23:44:04.511Z,65.60
2019-04-20T23:46:33.389Z,65.70
2019-04-20T23:49:27.320Z,65.90
2019-04-20T23:52:09.677Z,66.10
2019-04-20T23:54:27.407Z,66.30
2019-04-20T23:56:53.471Z,66.40
2019-04-20T23:59:30.712Z,66.70
